createdAt,value
2018-12-05T00:00:57.528Z,63.16
2018-12-05T00:03:25.801Z,63.97
2018-12-05T00:05:54.189Z,64.22
2018-12-05T00:08:22.357Z,64.87
2018-12-05T00:10:50.540Z,64.70
2018-12-05T00:13:18.704Z,65.59
2018-12-05T00:15:46.881Z,65.79
2018-12-05T00:18:15.057Z,66.20
2018-12-05T00:20:43.221Z,66.06
2018-12-05T00:23:11.420Z,66.10
2018-12-05T00:25:39.676Z,66.15
2018-12-05T00:28:07.864Z,66.59
2018-12-05T00:30:36.040Z,66.11
2018-12-05T00:33:04.416Z,66.61
2018-12-05T00:35:32.592Z,66.50
2018-12-05T00:38:00.851Z,66.01
2018-12-05T00:40:29.040Z,66.45
2018-12-05T00:42:57.205Z,65.77
2018-12-05T00:45:25.388Z,65.87
2018-12-05T00:47:53.552Z,65.69
2018-12-05T00:50:21.747Z,66.01
2018-12-05T00:52:49.914Z,66.16
2018-12-05T00:55:18.205Z,65.71
2018-12-05T00:57:46.357Z,65.72
2018-12-05T01:00:14.653Z,65.69
2018-12-05T01:02:42.841Z,65.37
2018-12-05T01:05:11.409Z,65.62
2018-12-05T01:07:39.573Z,65.92
2018-12-05T01:10:07.808Z,65.62
2018-12-05T01:12:36.140Z,65.96
2018-12-05T01:15:04.736Z,65.33
2018-12-05T01:17:32.884Z,65.83
2018-12-05T01:20:01.061Z,65.72
2018-12-05T01:22:29.232Z,65.77
2018-12-05T01:24:57.414Z,65.71
2018-12-05T01:27:25.637Z,66.06
2018-12-05T01:29:53.869Z,65.94
2018-12-05T01:32:22.008Z,66.02
2018-12-05T01:34:50.172Z,65.62
2018-12-05T01:37:18.485Z,65.56
2018-12-05T01:39:47.784Z,65.96
2018-12-05T01:42:15.924Z,65.47
2018-12-05T01:44:44.185Z,65.40
2018-12-05T01:47:12.324Z,65.88
2018-12-05T01:49:40.589Z,66.15
2018-12-05T01:52:08.773Z,65.87
2018-12-05T01:54:37.044Z,66.41
2018-12-05T01:57:05.230Z,66.09
2018-12-05T01:59:33.488Z,66.07
2018-12-05T02:02:01.680Z,66.23
2018-12-05T02:04:29.836Z,66.39
2018-12-05T02:06:58.034Z,66.79
2018-12-05T02:09:26.189Z,67.20
2018-12-05T02:11:54.485Z,67.19
2018-12-05T02:14:22.649Z,66.88
2018-12-05T02:16:50.947Z,67.16
2018-12-05T02:19:19.085Z,66.67
2018-12-05T02:21:47.393Z,67.06
2018-12-05T02:24:15.540Z,67.05
2018-12-05T02:26:43.824Z,66.78
2018-12-05T02:29:11.992Z,66.79
2018-12-05T02:31:40.185Z,66.82
2018-12-05T02:34:08.317Z,66.58
2018-12-05T02:36:36.653Z,66.58
2018-12-05T02:39:08.114Z,66.15
2018-12-05T02:41:36.362Z,66.19
2018-12-05T02:44:04.738Z,66.40
2018-12-05T02:46:32.922Z,66.27
2018-12-05T02:49:01.076Z,66.39
2018-12-05T02:51:29.366Z,65.86
2018-12-05T02:53:57.539Z,66.26
2018-12-05T02:56:26.040Z,66.35
2018-12-05T02:58:54.189Z,65.71
2018-12-05T03:01:22.373Z,66.21
2018-12-05T03:03:50.645Z,65.79
2018-12-05T03:06:18.941Z,66.08
2018-12-05T03:08:47.092Z,66.00
2018-12-05T03:11:15.509Z,65.65
2018-12-05T03:13:43.765Z,65.62
2018-12-05T03:16:11.931Z,65.77
2018-12-05T03:18:40.201Z,65.75
2018-12-05T03:21:08.348Z,65.69
2018-12-05T03:23:36.493Z,65.45
2018-12-05T03:26:04.841Z,65.10
2018-12-05T03:28:33.233Z,65.57
2018-12-05T03:31:01.386Z,65.51
2018-12-05T03:33:29.571Z,64.98
2018-12-05T03:35:57.732Z,65.05
2018-12-05T03:38:25.918Z,65.10
2018-12-05T03:40:54.146Z,65.47
2018-12-05T03:43:22.757Z,65.81
2018-12-05T03:45:51.063Z,65.30
2018-12-05T03:48:19.234Z,65.59
2018-12-05T03:50:47.502Z,65.84
2018-12-05T03:53:15.780Z,65.74
2018-12-05T03:55:43.922Z,65.67
2018-12-05T03:58:12.182Z,65.61
2018-12-05T04:00:40.422Z,65.98
2018-12-05T04:03:08.592Z,65.96
2018-12-05T04:05:36.758Z,65.70
2018-12-05T04:08:04.994Z,66.08
2018-12-05T04:10:33.201Z,66.12
2018-12-05T04:13:01.496Z,65.80
2018-12-05T04:15:29.741Z,66.43
2018-12-05T04:17:57.949Z,65.89
2018-12-05T04:20:26.093Z,66.40
2018-12-05T04:22:54.240Z,66.55
2018-12-05T04:25:22.461Z,66.41
2018-12-05T04:27:50.748Z,66.00
2018-12-05T04:30:19.012Z,66.05
2018-12-05T04:32:47.187Z,66.07
2018-12-05T04:35:15.369Z,65.58
2018-12-05T04:37:43.505Z,65.50
2018-12-05T04:40:11.653Z,65.67
2018-12-05T04:42:39.968Z,65.49
2018-12-05T04:45:08.394Z,66.22
2018-12-05T04:47:36.550Z,66.20
2018-12-05T04:50:05.665Z,66.29
2018-12-05T04:52:33.821Z,66.41
2018-12-05T04:55:02.125Z,66.08
2018-12-05T04:57:30.265Z,66.04
2018-12-05T04:59:58.449Z,66.23
2018-12-05T05:02:26.729Z,65.71
2018-12-05T05:04:55.053Z,65.93
2018-12-05T05:07:23.182Z,65.65
2018-12-05T05:09:51.329Z,65.61
2018-12-05T05:12:19.625Z,65.70
2018-12-05T05:14:47.812Z,65.88
2018-12-05T05:17:15.944Z,65.72
2018-12-05T05:19:44.094Z,65.60
2018-12-05T05:22:12.438Z,65.22
2018-12-05T05:24:40.612Z,65.03
2018-12-05T05:27:08.749Z,65.33
2018-12-05T05:29:36.964Z,64.89
2018-12-05T05:32:05.243Z,65.40
2018-12-05T05:34:33.488Z,64.99
2018-12-05T05:37:01.637Z,64.75
2018-12-05T05:39:29.782Z,65.04
2018-12-05T05:41:57.912Z,64.51
2018-12-05T05:44:26.101Z,64.89
2018-12-05T05:46:54.336Z,65.12
2018-12-05T05:49:22.552Z,64.74
2018-12-05T05:51:50.753Z,64.90
2018-12-05T05:54:19.017Z,64.76
2018-12-05T05:56:47.302Z,64.75
2018-12-05T05:59:15.670Z,64.69
2018-12-05T06:01:43.856Z,64.92
2018-12-05T06:04:12.076Z,64.59
2018-12-05T06:06:40.228Z,64.34
2018-12-05T06:09:08.877Z,64.44
2018-12-05T06:11:37.291Z,64.18
2018-12-05T06:14:05.755Z,64.27
2018-12-05T06:16:33.960Z,64.62
2018-12-05T06:19:02.194Z,64.04
2018-12-05T06:21:30.477Z,63.94
2018-12-05T06:23:58.652Z,64.42
2018-12-05T06:26:26.929Z,64.08
2018-12-05T06:28:55.137Z,63.93
2018-12-05T06:31:23.285Z,64.39
2018-12-05T06:33:51.452Z,64.48
2018-12-05T06:36:19.729Z,64.49
2018-12-05T06:38:47.897Z,64.04
2018-12-05T06:41:16.036Z,63.93
2018-12-05T06:43:44.257Z,64.50
2018-12-05T06:46:12.552Z,64.47
2018-12-05T06:48:40.712Z,64.35
2018-12-05T06:51:08.889Z,64.08
2018-12-05T06:53:37.071Z,64.15
2018-12-05T06:56:05.229Z,64.08
2018-12-05T06:58:33.508Z,64.06
2018-12-05T07:01:01.777Z,64.10
2018-12-05T07:03:29.965Z,64.39
2018-12-05T07:05:58.104Z,63.78
2018-12-05T07:08:26.321Z,64.32
2018-12-05T07:10:54.481Z,64.05
2018-12-05T07:13:22.629Z,64.00
2018-12-05T07:15:50.825Z,63.57
2018-12-05T07:18:19.020Z,63.80
2018-12-05T07:20:47.181Z,63.64
2018-12-05T07:23:15.366Z,63.65
2018-12-05T07:25:43.529Z,63.91
2018-12-05T07:28:11.709Z,63.96
2018-12-05T07:30:39.984Z,64.40
2018-12-05T07:33:08.132Z,64.36
2018-12-05T07:35:36.330Z,64.02
2018-12-05T07:38:04.713Z,63.86
2018-12-05T07:40:32.901Z,63.79
2018-12-05T07:43:01.180Z,63.77
2018-12-05T07:45:29.350Z,63.38
2018-12-05T07:47:57.516Z,63.89
2018-12-05T07:50:25.699Z,63.87
2018-12-05T07:52:53.875Z,63.89
2018-12-05T07:55:22.144Z,63.77
2018-12-05T07:57:50.317Z,64.16
2018-12-05T08:00:18.465Z,63.81
2018-12-05T08:02:46.669Z,64.16
2018-12-05T08:05:14.973Z,64.03
2018-12-05T08:07:43.117Z,64.41
2018-12-05T08:10:11.313Z,64.45
2018-12-05T08:12:39.450Z,64.27
2018-12-05T08:15:08.965Z,64.16
2018-12-05T08:17:37.108Z,64.28
2018-12-05T08:20:05.657Z,64.21
2018-12-05T08:22:33.812Z,63.92
2018-12-05T08:25:01.989Z,63.83
2018-12-05T08:27:30.229Z,64.21
2018-12-05T08:29:58.445Z,63.79
2018-12-05T08:32:26.604Z,63.47
2018-12-05T08:34:54.794Z,63.42
2018-12-05T08:37:22.957Z,64.02
2018-12-05T08:39:51.356Z,63.51
2018-12-05T08:42:19.501Z,63.68
2018-12-05T08:44:47.649Z,63.46
2018-12-05T08:47:15.793Z,63.57
2018-12-05T08:49:44.050Z,63.44
2018-12-05T08:52:12.328Z,63.90
2018-12-05T08:54:40.600Z,63.56
2018-12-05T08:57:08.772Z,63.55
2018-12-05T08:59:37.037Z,63.19
2018-12-05T09:02:05.545Z,63.65
2018-12-05T09:04:33.801Z,62.98
2018-12-05T09:07:02.093Z,63.32
2018-12-05T09:09:30.375Z,63.30
2018-12-05T09:11:58.520Z,62.86
2018-12-05T09:14:28.857Z,62.86
2018-12-05T09:16:57.041Z,63.01
2018-12-05T09:19:25.186Z,62.83
2018-12-05T09:21:53.396Z,62.41
2018-12-05T09:24:21.625Z,62.54
2018-12-05T09:26:49.849Z,62.52
2018-12-05T09:29:18.008Z,62.77
2018-12-05T09:31:46.193Z,62.18
2018-12-05T09:34:14.576Z,62.14
2018-12-05T09:36:42.721Z,61.89
2018-12-05T09:39:10.681Z,61.94
2018-12-05T09:41:39.016Z,61.96
2018-12-05T09:44:07.156Z,62.07
2018-12-05T09:46:35.344Z,62.10
2018-12-05T09:49:03.636Z,61.61
2018-12-05T09:51:31.802Z,61.73
2018-12-05T09:53:59.964Z,62.08
2018-12-05T09:56:28.252Z,61.60
2018-12-05T09:58:56.461Z,62.19
2018-12-05T10:01:24.700Z,62.16
2018-12-05T10:03:52.985Z,61.91
2018-12-05T10:06:21.261Z,61.94
2018-12-05T10:08:49.533Z,61.37
2018-12-05T10:11:17.672Z,61.95
2018-12-05T10:13:45.825Z,61.65
2018-12-05T10:16:13.997Z,61.32
2018-12-05T10:18:42.232Z,61.69
2018-12-05T10:21:10.501Z,61.05
2018-12-05T10:23:38.698Z,61.51
2018-12-05T10:26:06.944Z,61.49
2018-12-05T10:28:35.274Z,61.26
2018-12-05T10:31:03.528Z,60.96
2018-12-05T10:33:31.704Z,60.86
2018-12-05T10:35:59.977Z,60.86
2018-12-05T10:38:28.193Z,60.81
2018-12-05T10:40:56.344Z,60.91
2018-12-05T10:43:24.620Z,60.95
2018-12-05T10:45:52.774Z,60.86
2018-12-05T10:48:21.057Z,60.79
2018-12-05T10:50:49.320Z,61.03
2018-12-05T10:53:17.697Z,61.23
2018-12-05T10:55:45.892Z,61.26
2018-12-05T10:58:14.057Z,61.03
2018-12-05T11:00:47.576Z,61.17
2018-12-05T11:03:20.024Z,60.22
2018-12-05T11:05:53.564Z,61.08
2018-12-05T11:08:27.137Z,60.51
2018-12-05T11:11:00.768Z,60.96
2018-12-05T11:13:34.481Z,61.13
2018-12-05T11:16:08.281Z,60.34
2018-12-05T11:18:41.682Z,61.00
2018-12-05T11:21:15.279Z,61.42
2018-12-05T11:23:48.769Z,61.22
2018-12-05T11:26:20.031Z,61.13
2018-12-05T11:28:48.387Z,61.14
2018-12-05T11:31:16.713Z,61.75
2018-12-05T11:33:44.877Z,61.70
2018-12-05T11:36:13.096Z,61.80
2018-12-05T11:38:41.793Z,61.76
2018-12-05T11:41:10.072Z,61.80
2018-12-05T11:43:38.353Z,61.18
2018-12-05T11:46:06.596Z,60.46
2018-12-05T11:48:34.809Z,61.08
2018-12-05T11:51:03.074Z,61.70
2018-12-05T11:53:31.472Z,61.51
2018-12-05T11:55:59.838Z,61.70
2018-12-05T11:58:28.129Z,61.56
2018-12-05T12:00:56.451Z,62.12
2018-12-05T12:03:24.677Z,61.79
2018-12-05T12:05:52.837Z,62.02
2018-12-05T12:08:21.025Z,62.29
2018-12-05T12:10:49.561Z,61.90
2018-12-05T12:13:17.896Z,61.53
2018-12-05T12:15:46.369Z,61.42
2018-12-05T12:18:14.545Z,61.52
2018-12-05T12:20:44.432Z,62.38
2018-12-05T12:23:13.145Z,62.65
2018-12-05T12:25:41.365Z,62.97
2018-12-05T12:28:09.633Z,63.13
2018-12-05T12:30:37.958Z,62.83
2018-12-05T12:33:06.194Z,62.38
2018-12-05T12:35:34.433Z,62.57
2018-12-05T12:38:02.608Z,62.60
2018-12-05T12:40:30.828Z,62.65
2018-12-05T12:42:59.087Z,61.83
2018-12-05T12:45:27.249Z,61.69
2018-12-05T12:47:55.512Z,62.56
2018-12-05T12:50:23.781Z,61.84
2018-12-05T12:52:51.941Z,62.10
2018-12-05T12:55:20.238Z,62.80
2018-12-05T12:57:48.393Z,62.57
2018-12-05T13:00:16.733Z,62.56
2018-12-05T13:02:45.073Z,62.59
2018-12-05T13:05:13.564Z,62.28
2018-12-05T13:07:41.752Z,62.39
2018-12-05T13:10:09.937Z,62.20
2018-12-05T13:12:38.082Z,62.36
2018-12-05T13:15:06.571Z,62.04
2018-12-05T13:17:34.734Z,62.26
2018-12-05T13:20:03.004Z,62.43
2018-12-05T13:22:31.189Z,62.63
2018-12-05T13:24:59.345Z,62.89
2018-12-05T13:27:27.641Z,62.98
2018-12-05T13:29:55.798Z,63.05
2018-12-05T13:32:23.993Z,63.28
2018-12-05T13:34:52.136Z,63.39
2018-12-05T13:37:20.344Z,63.15
2018-12-05T13:39:48.500Z,63.52
2018-12-05T13:42:16.689Z,62.74
2018-12-05T13:44:44.957Z,63.09
2018-12-05T13:47:13.705Z,61.97
2018-12-05T13:49:41.856Z,61.90
2018-12-05T13:52:10.010Z,62.59
2018-12-05T13:54:38.163Z,62.61
2018-12-05T13:57:06.425Z,62.52
2018-12-05T13:59:34.577Z,62.24
2018-12-05T14:02:02.816Z,61.62
2018-12-05T14:04:30.972Z,61.96
2018-12-05T14:06:59.369Z,61.75
2018-12-05T14:09:27.517Z,61.59
2018-12-05T14:11:55.684Z,61.42
2018-12-05T14:14:23.920Z,61.63
2018-12-05T14:16:52.165Z,61.74
2018-12-05T14:19:20.315Z,61.59
2018-12-05T14:21:48.533Z,61.76
2018-12-05T14:24:16.685Z,62.04
2018-12-05T14:26:44.861Z,61.70
2018-12-05T14:29:13.036Z,61.92
2018-12-05T14:31:41.313Z,61.59
2018-12-05T14:34:09.486Z,62.16
2018-12-05T14:36:37.725Z,62.65
2018-12-05T14:39:07.102Z,62.90
2018-12-05T14:41:35.428Z,62.87
2018-12-05T14:44:03.741Z,62.75
2018-12-05T14:46:31.892Z,62.66
2018-12-05T14:49:00.157Z,62.37
2018-12-05T14:51:28.333Z,62.35
2018-12-05T14:53:56.524Z,62.79
2018-12-05T14:56:24.689Z,62.92
2018-12-05T14:58:52.989Z,62.72
2018-12-05T15:01:21.141Z,63.43
2018-12-05T15:03:49.321Z,63.27
2018-12-05T15:06:17.498Z,63.33
2018-12-05T15:08:45.676Z,63.74
2018-12-05T15:11:13.830Z,63.34
2018-12-05T15:13:42.020Z,63.81
2018-12-05T15:16:10.191Z,63.59
2018-12-05T15:18:38.376Z,64.25
2018-12-05T15:21:06.760Z,64.29
2018-12-05T15:23:34.972Z,64.02
2018-12-05T15:26:03.215Z,64.06
2018-12-05T15:28:31.469Z,63.88
2018-12-05T15:30:59.720Z,64.00
2018-12-05T15:33:27.969Z,64.08
2018-12-05T15:35:56.217Z,64.06
2018-12-05T15:38:24.377Z,63.99
2018-12-05T15:40:52.601Z,63.51
2018-12-05T15:43:20.862Z,63.59
2018-12-05T15:45:49.124Z,63.80
2018-12-05T15:48:17.284Z,63.92
2018-12-05T15:50:45.474Z,63.53
2018-12-05T15:53:13.673Z,63.87
2018-12-05T15:55:41.839Z,63.68
2018-12-05T15:58:10.084Z,63.77
2018-12-05T16:00:38.249Z,63.90
2018-12-05T16:03:06.633Z,63.39
2018-12-05T16:05:36.121Z,63.34
2018-12-05T16:08:04.264Z,63.55
2018-12-05T16:10:32.439Z,63.38
2018-12-05T16:13:00.676Z,63.84
2018-12-05T16:15:28.892Z,63.60
2018-12-05T16:17:57.125Z,63.35
2018-12-05T16:20:25.316Z,63.38
2018-12-05T16:22:53.501Z,64.02
2018-12-05T16:25:21.742Z,63.83
2018-12-05T16:27:50.049Z,63.76
2018-12-05T16:30:18.511Z,64.05
2018-12-05T16:32:46.924Z,63.54
2018-12-05T16:35:15.229Z,64.10
2018-12-05T16:37:43.398Z,64.03
2018-12-05T16:40:11.717Z,64.01
2018-12-05T16:42:40.016Z,63.44
2018-12-05T16:45:08.701Z,63.24
2018-12-05T16:47:36.976Z,63.83
2018-12-05T16:50:05.969Z,63.36
2018-12-05T16:52:34.140Z,63.82
2018-12-05T16:55:02.302Z,63.36
2018-12-05T16:57:30.514Z,63.43
2018-12-05T16:59:58.669Z,63.85
2018-12-05T17:02:26.840Z,63.56
2018-12-05T17:04:54.996Z,63.64
2018-12-05T17:07:23.308Z,63.62
2018-12-05T17:09:51.656Z,64.01
2018-12-05T17:12:19.825Z,63.83
2018-12-05T17:14:47.973Z,63.46
2018-12-05T17:17:16.195Z,63.92
2018-12-05T17:19:46.242Z,63.79
2018-12-05T17:22:14.628Z,63.30
2018-12-05T17:24:42.773Z,63.29
2018-12-05T17:27:10.957Z,63.56
2018-12-05T17:29:39.108Z,63.88
2018-12-05T17:32:07.285Z,63.38
2018-12-05T17:34:35.473Z,63.86
2018-12-05T17:37:03.716Z,63.33
2018-12-05T17:39:31.961Z,63.35
2018-12-05T17:42:00.108Z,63.74
2018-12-05T17:44:28.273Z,63.80
2018-12-05T17:46:56.575Z,63.63
2018-12-05T17:49:24.733Z,63.55
2018-12-05T17:51:52.896Z,63.74
2018-12-05T17:54:21.190Z,63.46
2018-12-05T17:56:49.441Z,63.61
2018-12-05T17:59:17.629Z,63.44
2018-12-05T18:01:45.809Z,63.47
2018-12-05T18:04:14.063Z,63.34
2018-12-05T18:06:42.249Z,63.33
2018-12-05T18:09:10.538Z,63.40
2018-12-05T18:11:38.705Z,63.21
2018-12-05T18:14:06.987Z,63.24
2018-12-05T18:16:35.256Z,63.75
2018-12-05T18:19:03.552Z,63.74
2018-12-05T18:21:31.801Z,63.59
2018-12-05T18:24:00.143Z,63.32
2018-12-05T18:26:28.380Z,63.66
2018-12-05T18:28:56.633Z,63.37
2018-12-05T18:31:24.825Z,63.92
2018-12-05T18:33:52.993Z,63.47
2018-12-05T18:36:21.239Z,63.88
2018-12-05T18:38:49.552Z,63.86
2018-12-05T18:41:17.808Z,63.77
2018-12-05T18:43:46.066Z,63.64
2018-12-05T18:46:14.381Z,63.56
2018-12-05T18:48:42.573Z,63.38
2018-12-05T18:51:10.744Z,63.38
2018-12-05T18:53:38.904Z,63.78
2018-12-05T18:56:07.397Z,63.19
2018-12-05T18:58:35.589Z,63.79
2018-12-05T19:01:03.852Z,63.76
2018-12-05T19:03:32.005Z,63.55
2018-12-05T19:06:00.179Z,63.22
2018-12-05T19:08:34.253Z,63.12
2018-12-05T19:10:58.601Z,63.52
2018-12-05T19:13:26.753Z,63.05
2018-12-05T19:15:55.016Z,63.04
2018-12-05T19:18:23.580Z,63.51
2018-12-05T19:20:51.977Z,62.97
2018-12-05T19:23:20.213Z,63.55
2018-12-05T19:25:48.365Z,63.64
2018-12-05T19:28:16.966Z,62.96
2018-12-05T19:30:45.360Z,63.52
2018-12-05T19:33:14.449Z,63.51
2018-12-05T19:35:42.597Z,63.08
2018-12-05T19:38:10.865Z,63.00
2018-12-05T19:40:39.040Z,62.96
2018-12-05T19:43:07.622Z,62.99
2018-12-05T19:45:35.870Z,63.49
2018-12-05T19:48:04.034Z,63.45
2018-12-05T19:50:32.259Z,63.31
2018-12-05T19:53:00.524Z,63.29
2018-12-05T19:55:28.891Z,63.41
2018-12-05T19:57:57.185Z,63.58
2018-12-05T20:00:25.333Z,63.23
2018-12-05T20:02:53.640Z,63.04
2018-12-05T20:05:21.880Z,63.02
2018-12-05T20:07:50.045Z,63.38
2018-12-05T20:10:18.377Z,63.34
2018-12-05T20:12:46.644Z,62.96
2018-12-05T20:15:14.941Z,63.58
2018-12-05T20:17:43.273Z,64.01
2018-12-05T20:20:11.696Z,63.64
2018-12-05T20:22:39.852Z,63.91
2018-12-05T20:25:08.345Z,63.25
2018-12-05T20:27:36.612Z,63.99
2018-12-05T20:30:05.777Z,64.05
2018-12-05T20:32:33.992Z,63.54
2018-12-05T20:35:02.156Z,64.06
2018-12-05T20:37:30.344Z,64.17
2018-12-05T20:39:58.665Z,63.78
2018-12-05T20:42:26.901Z,64.18
2018-12-05T20:44:55.081Z,63.87
2018-12-05T20:47:23.476Z,63.98
2018-12-05T20:49:51.838Z,63.84
2018-12-05T20:52:20.114Z,63.67
2018-12-05T20:54:48.388Z,64.04
2018-12-05T20:57:16.552Z,64.28
2018-12-05T20:59:44.712Z,64.03
2018-12-05T21:02:12.905Z,63.51
2018-12-05T21:04:41.084Z,63.76
2018-12-05T21:07:09.245Z,63.73
2018-12-05T21:09:37.439Z,63.66
2018-12-05T21:12:05.839Z,64.04
2018-12-05T21:14:34.102Z,64.15
2018-12-05T21:17:02.357Z,64.21
2018-12-05T21:19:30.685Z,64.34
2018-12-05T21:21:58.919Z,64.36
2018-12-05T21:24:27.106Z,64.25
2018-12-05T21:26:55.264Z,64.00
2018-12-05T21:29:23.452Z,63.93
2018-12-05T21:31:51.978Z,64.36
2018-12-05T21:34:20.208Z,64.52
2018-12-05T21:36:48.377Z,64.05
2018-12-05T21:39:16.533Z,64.47
2018-12-05T21:41:44.733Z,64.01
2018-12-05T21:44:13.034Z,63.92
2018-12-05T21:46:41.180Z,64.24
2018-12-05T21:49:09.381Z,63.88
2018-12-05T21:51:37.632Z,63.57
2018-12-05T21:54:05.969Z,63.92
2018-12-05T21:56:34.137Z,63.67
2018-12-05T21:59:02.363Z,63.88
2018-12-05T22:01:31.061Z,63.42
2018-12-05T22:03:59.348Z,63.50
2018-12-05T22:06:27.641Z,63.82
2018-12-05T22:08:55.869Z,63.79
2018-12-05T22:11:24.052Z,63.41
2018-12-05T22:13:52.341Z,63.66
2018-12-05T22:16:20.514Z,63.49
2018-12-05T22:18:48.665Z,63.77
2018-12-05T22:21:16.857Z,63.94
2018-12-05T22:23:45.025Z,64.02
2018-12-05T22:26:13.317Z,63.66
2018-12-05T22:28:41.477Z,63.70
2018-12-05T22:31:09.640Z,63.95
2018-12-05T22:33:37.829Z,63.34
2018-12-05T22:36:06.008Z,63.92
2018-12-05T22:38:34.376Z,63.94
2018-12-05T22:41:02.541Z,63.69
2018-12-05T22:43:30.732Z,63.61
2018-12-05T22:45:58.921Z,64.02
2018-12-05T22:48:27.077Z,63.79
2018-12-05T22:50:55.240Z,63.61
2018-12-05T22:53:23.429Z,63.70
2018-12-05T22:55:51.625Z,63.54
2018-12-05T22:58:19.776Z,63.48
2018-12-05T23:00:52.361Z,63.81
2018-12-05T23:03:20.656Z,63.83
2018-12-05T23:05:49.306Z,63.93
2018-12-05T23:08:17.457Z,63.63
2018-12-05T23:10:45.804Z,63.60
2018-12-05T23:13:13.965Z,63.32
2018-12-05T23:15:42.251Z,63.32
2018-12-05T23:18:10.412Z,63.44
2018-12-05T23:20:38.641Z,63.84
2018-12-05T23:23:06.975Z,63.74
2018-12-05T23:25:35.116Z,63.70
2018-12-05T23:28:03.326Z,63.38
2018-12-05T23:30:31.689Z,63.66
2018-12-05T23:32:59.852Z,63.58
2018-12-05T23:35:28.136Z,63.11
2018-12-05T23:37:56.440Z,63.56
2018-12-05T23:40:24.707Z,63.09
2018-12-05T23:42:53.197Z,63.60
2018-12-05T23:45:21.351Z,63.19
2018-12-05T23:47:49.525Z,63.51
2018-12-05T23:50:17.816Z,63.14
2018-12-05T23:52:46.092Z,63.37
2018-12-05T23:55:14.360Z,62.97
2018-12-05T23:57:42.530Z,63.43
